Time;durP1;ratioP1;P1;durP2;ratioP2;P2;SDS_P1;SDS_P2;PMS_P1;PMS_P2;Temp;Humidity;BMP_temperature;BMP_pressure;BME280_temperature;BME280_humidity;BME280_pressure;Samples;Min_cycle;Max_cycle;Signal;HPM_P1;HPM_P2
2022/05/16 00:02:24;;;;;;;9.18;6.55;;;;;;;;;;10409362;28;20438;-87
2022/05/16 00:07:27;;;;;;;10.15;7.70;;;;;;;;;;10413394;28;20942;-88
2022/05/16 00:12:29;;;;;;;8.52;7.18;;;;;;;;;;10415997;28;20432;-88
2022/05/16 00:17:31;;;;;;;10.40;7.83;;;;;;;;;;10414976;28;20851;-89
2022/05/16 00:22:34;;;;;;;11.67;9.07;;;;;;;;;;10420206;28;20425;-88
2022/05/16 00:27:36;;;;;;;13.10;9.82;;;;;;;;;;10418975;28;20495;-88
2022/05/16 00:32:38;;;;;;;12.05;8.80;;;;;;;;;;10416572;28;20417;-87
2022/05/16 00:37:41;;;;;;;11.53;10.00;;;;;;;;;;10421907;28;20484;-89
2022/05/16 00:42:45;;;;;;;14.95;10.82;;;;;;;;;;10427202;28;20516;-88
2022/05/16 00:47:47;;;;;;;16.02;13.35;;;;;;;;;;10424861;28;20440;-89
2022/05/16 00:52:52;;;;;;;14.45;12.90;;;;;;;;;;10422781;28;20411;-89
2022/05/16 00:57:59;;;;;;;15.25;13.68;;;;;;;;;;10428565;28;20772;-88
2022/05/16 01:08:26;;;;;;;19.57;15.73;;;;;;;;;;10426722;28;20674;-88
2022/05/16 01:13:30;;;;;;;19.30;15.60;;;;;;;;;;10426026;28;20439;-88
2022/05/16 01:18:32;;;;;;;18.52;14.93;;;;;;;;;;10424562;28;20883;-88
2022/05/16 01:23:38;;;;;;;16.00;14.20;;;;;;;;;;10427262;28;20416;-88
2022/05/16 01:28:40;;;;;;;15.47;13.87;;;;;;;;;;10424619;28;20573;-88
2022/05/16 01:33:42;;;;;;;15.10;12.87;;;;;;;;;;10422599;28;20410;-89
2022/05/16 01:38:46;;;;;;;14.07;12.15;;;;;;;;;;10425220;28;20773;-88
2022/05/16 01:43:51;;;;;;;12.95;11.13;;;;;;;;;;10424864;28;20873;-88
2022/05/16 01:48:53;;;;;;;13.57;11.10;;;;;;;;;;10423432;28;20406;-88
2022/05/16 01:53:57;;;;;;;12.60;11.23;;;;;;;;;;10426465;28;20414;-89
2022/05/16 01:58:59;;;;;;;13.80;11.15;;;;;;;;;;10424487;28;20433;-88
2022/05/16 02:04:01;;;;;;;13.05;11.52;;;;;;;;;;10435038;28;20963;-88
2022/05/16 02:09:04;;;;;;;14.33;12.13;;;;;;;;;;10444933;28;20411;-88
2022/05/16 02:14:06;;;;;;;16.33;11.88;;;;;;;;;;10411984;28;20672;-88
2022/05/16 02:19:08;;;;;;;13.02;11.73;;;;;;;;;;10403418;28;20924;-88
2022/05/16 02:29:31;;;;;;;12.77;11.48;;;;;;;;;;10445169;28;20388;-88
2022/05/16 02:34:33;;;;;;;13.50;10.90;;;;;;;;;;10412535;28;20434;-88
2022/05/16 02:39:36;;;;;;;12.80;11.13;;;;;;;;;;10410995;28;20413;-86
2022/05/16 02:44:39;;;;;;;13.60;11.20;;;;;;;;;;10402414;28;20563;-86
2022/05/16 02:49:41;;;;;;;13.13;11.70;;;;;;;;;;10401955;28;20777;-88
2022/05/16 02:54:44;;;;;;;14.50;10.83;;;;;;;;;;10427434;28;20598;-88
2022/05/16 02:59:46;;;;;;;14.57;11.35;;;;;;;;;;10442643;28;20486;-87
2022/05/16 03:04:48;;;;;;;13.48;12.07;;;;;;;;;;10442359;28;20542;-88
2022/05/16 03:09:51;;;;;;;15.73;12.20;;;;;;;;;;10430689;28;20492;-88
2022/05/16 03:14:53;;;;;;;18.13;12.98;;;;;;;;;;10441642;28;20479;-88
2022/05/16 03:19:55;;;;;;;16.20;12.95;;;;;;;;;;10442279;28;20412;-87
2022/05/16 03:24:58;;;;;;;15.13;12.82;;;;;;;;;;10440235;28;20430;-87
2022/05/16 03:30:00;;;;;;;14.40;12.97;;;;;;;;;;10442333;28;20450;-87
2022/05/16 03:35:02;;;;;;;16.83;13.00;;;;;;;;;;10442801;28;20486;-87
2022/05/16 03:45:25;;;;;;;14.48;12.98;;;;;;;;;;10402576;28;20417;-89
2022/05/16 03:50:27;;;;;;;15.55;11.95;;;;;;;;;;10404955;28;20418;-89
2022/05/16 03:55:31;;;;;;;15.65;12.70;;;;;;;;;;10442401;28;20413;-87
2022/05/16 04:00:33;;;;;;;14.82;11.95;;;;;;;;;;10437076;28;20495;-88
2022/05/16 04:05:35;;;;;;;13.35;11.95;;;;;;;;;;10406693;28;20430;-88
2022/05/16 04:10:39;;;;;;;13.95;12.30;;;;;;;;;;10424944;28;20464;-88
2022/05/16 04:15:40;;;;;;;14.32;12.52;;;;;;;;;;10426508;28;20466;-88
2022/05/16 04:20:43;;;;;;;14.07;12.38;;;;;;;;;;10430086;28;20723;-88
2022/05/16 04:25:46;;;;;;;16.73;12.90;;;;;;;;;;10430878;28;20415;-87
2022/05/16 04:30:48;;;;;;;14.95;13.30;;;;;;;;;;10425667;28;20428;-87
2022/05/16 04:35:49;;;;;;;15.93;13.52;;;;;;;;;;10428817;28;20415;-87
2022/05/16 04:46:12;;;;;;;16.23;13.57;;;;;;;;;;10424057;28;20421;-88
2022/05/16 04:51:14;;;;;;;17.63;13.38;;;;;;;;;;10428672;28;20410;-88
2022/05/16 04:56:17;;;;;;;16.75;13.70;;;;;;;;;;10417473;28;20403;-86
2022/05/16 05:01:19;;;;;;;16.50;13.67;;;;;;;;;;10421128;28;20492;-86
2022/05/16 05:06:21;;;;;;;18.52;13.93;;;;;;;;;;10426586;28;20929;-87
2022/05/16 05:16:43;;;;;;;18.87;14.97;;;;;;;;;;10411432;28;20394;-87
2022/05/16 05:21:45;;;;;;;16.73;14.43;;;;;;;;;;10416692;28;20407;-87
2022/05/16 05:26:49;;;;;;;16.05;14.20;;;;;;;;;;10423246;28;20504;-85
2022/05/16 05:31:51;;;;;;;17.38;14.60;;;;;;;;;;10415427;28;21312;-86
2022/05/16 05:36:53;;;;;;;17.75;13.93;;;;;;;;;;10414690;28;21197;-87
2022/05/16 05:41:56;;;;;;;18.45;14.25;;;;;;;;;;10414287;28;20411;-87
2022/05/16 05:47:00;;;;;;;18.92;14.77;;;;;;;;;;10414962;28;20413;-83
2022/05/16 05:52:02;;;;;;;21.60;15.07;;;;;;;;;;10413988;28;20421;-88
2022/05/16 05:57:06;;;;;;;18.05;14.57;;;;;;;;;;10424488;28;20844;-88
2022/05/16 06:02:10;;;;;;;17.77;14.75;;;;;;;;;;10421089;28;20442;-87
2022/05/16 06:07:12;;;;;;;20.55;15.45;;;;;;;;;;10422988;28;20993;-87
2022/05/16 06:12:15;;;;;;;19.25;15.40;;;;;;;;;;10424931;28;20951;-88
2022/05/16 06:17:18;;;;;;;19.77;14.88;;;;;;;;;;10421580;28;20779;-88
2022/05/16 06:22:19;;;;;;;19.17;14.97;;;;;;;;;;10422171;28;20764;-88
2022/05/16 06:27:23;;;;;;;16.77;14.00;;;;;;;;;;10422781;28;20769;-88
2022/05/16 06:32:25;;;;;;;17.35;13.32;;;;;;;;;;10418232;28;20495;-89
2022/05/16 06:37:27;;;;;;;16.13;12.68;;;;;;;;;;10424341;28;20413;-85
2022/05/16 06:42:30;;;;;;;14.60;11.13;;;;;;;;;;10423048;28;20905;-88
2022/05/16 06:47:32;;;;;;;19.25;12.63;;;;;;;;;;10420629;28;20913;-88
2022/05/16 06:52:34;;;;;;;18.05;14.25;;;;;;;;;;10423738;28;20775;-87
2022/05/16 06:57:38;;;;;;;16.80;12.95;;;;;;;;;;10420708;28;20887;-87
2022/05/16 07:02:41;;;;;;;19.27;13.45;;;;;;;;;;10417446;28;21131;-88
2022/05/16 07:07:42;;;;;;;14.40;11.60;;;;;;;;;;10428130;28;20434;-86
2022/05/16 07:12:46;;;;;;;17.83;12.70;;;;;;;;;;10420793;28;20892;-88
2022/05/16 07:17:47;;;;;;;17.03;11.10;;;;;;;;;;10420198;28;20413;-88
2022/05/16 07:22:49;;;;;;;13.67;10.23;;;;;;;;;;10420790;28;20994;-84
2022/05/16 07:27:59;;;;;;;13.77;10.00;;;;;;;;;;10422290;28;20429;-87
2022/05/16 07:33:02;;;;;;;11.57;10.10;;;;;;;;;;10420271;28;20406;-88
2022/05/16 07:38:04;;;;;;;12.13;9.55;;;;;;;;;;10421836;28;20951;-87
2022/05/16 07:43:07;;;;;;;14.65;10.07;;;;;;;;;;10420969;28;20503;-86
2022/05/16 07:48:09;;;;;;;12.48;9.60;;;;;;;;;;10433330;22;20437;-84
2022/05/16 07:53:13;;;;;;;10.27;8.10;;;;;;;;;;10496550;28;20678;-85
2022/05/16 07:58:16;;;;;;;14.23;10.57;;;;;;;;;;10501773;28;20485;-85
2022/05/16 08:03:21;;;;;;;11.27;8.53;;;;;;;;;;10500196;28;20519;-85
2022/05/16 08:13:44;;;;;;;12.55;9.13;;;;;;;;;;10498001;28;20394;-85
2022/05/16 08:18:46;;;;;;;10.87;9.27;;;;;;;;;;10500408;28;20443;-85
2022/05/16 08:23:48;;;;;;;10.87;8.97;;;;;;;;;;10499158;28;20427;-85
2022/05/16 08:28:51;;;;;;;16.80;11.32;;;;;;;;;;10501038;28;20400;-85
2022/05/16 08:33:53;;;;;;;11.83;10.23;;;;;;;;;;10489045;28;20413;-85
2022/05/16 08:44:21;;;;;;;15.70;10.50;;;;;;;;;;10498884;28;20776;-85
2022/05/16 08:49:29;;;;;;;13.23;9.55;;;;;;;;;;10495624;28;20407;-85
2022/05/16 08:54:38;;;;;;;11.45;9.82;;;;;;;;;;10501796;28;20416;-85
2022/05/16 08:59:44;;;;;;;13.38;9.68;;;;;;;;;;10501434;28;20559;-85
2022/05/16 09:04:51;;;;;;;10.48;9.13;;;;;;;;;;10506521;28;20901;-85
2022/05/16 09:10:01;;;;;;;10.70;9.20;;;;;;;;;;10504898;28;20483;-85
2022/05/16 09:15:17;;;;;;;10.83;9.23;;;;;;;;;;10506712;28;20493;-85
2022/05/16 09:20:33;;;;;;;8.93;8.02;;;;;;;;;;10505928;28;20411;-84
2022/05/16 09:25:47;;;;;;;10.80;8.80;;;;;;;;;;10504948;28;20530;-86
2022/05/16 09:30:56;;;;;;;10.02;8.52;;;;;;;;;;10502983;28;20521;-85
2022/05/16 09:36:02;;;;;;;12.13;9.05;;;;;;;;;;10505574;28;20394;-85
2022/05/16 09:41:24;;;;;;;10.32;7.93;;;;;;;;;;10502306;28;20404;-85
2022/05/16 09:46:33;;;;;;;11.67;9.13;;;;;;;;;;10504808;28;20416;-85
2022/05/16 09:51:41;;;;;;;12.75;9.50;;;;;;;;;;10504497;28;20485;-85
2022/05/16 09:56:56;;;;;;;14.98;9.75;;;;;;;;;;10503815;28;20739;-85
2022/05/16 10:02:09;;;;;;;12.90;8.67;;;;;;;;;;10504450;28;20841;-85
2022/05/16 10:07:12;;;;;;;12.95;9.25;;;;;;;;;;10500481;28;20415;-85
2022/05/16 10:12:17;;;;;;;11.57;9.23;;;;;;;;;;10503542;28;20926;-86
2022/05/16 10:17:28;;;;;;;11.32;9.63;;;;;;;;;;10503333;28;21398;-85
2022/05/16 10:22:31;;;;;;;10.07;9.00;;;;;;;;;;10503514;28;20608;-86
2022/05/16 10:27:37;;;;;;;9.68;8.57;;;;;;;;;;10503178;28;20929;-86
2022/05/16 10:38:08;;;;;;;11.23;8.93;;;;;;;;;;10504233;28;20414;-85
2022/05/16 10:43:22;;;;;;;11.88;9.90;;;;;;;;;;10503121;28;20404;-85
2022/05/16 10:48:32;;;;;;;11.97;10.47;;;;;;;;;;10502068;28;20396;-86
2022/05/16 10:53:39;;;;;;;12.25;11.02;;;;;;;;;;10502978;28;20716;-85
2022/05/16 10:58:50;;;;;;;15.45;11.43;;;;;;;;;;10507438;28;20398;-85
2022/05/16 11:04:23;;;;;;;14.63;11.30;;;;;;;;;;10501910;28;21021;-86
2022/05/16 11:09:34;;;;;;;12.60;10.40;;;;;;;;;;10496573;28;20492;-86
2022/05/16 11:14:41;;;;;;;12.52;10.10;;;;;;;;;;10502240;28;20740;-86
2022/05/16 11:19:53;;;;;;;14.13;11.68;;;;;;;;;;10504154;28;20402;-85
2022/05/16 11:25:04;;;;;;;11.37;9.50;;;;;;;;;;10500761;28;20860;-85
2022/05/16 11:30:13;;;;;;;10.73;9.63;;;;;;;;;;10491064;28;20814;-85
2022/05/16 11:35:22;;;;;;;11.38;8.70;;;;;;;;;;10488707;28;20433;-85
2022/05/16 11:40:33;;;;;;;10.27;8.97;;;;;;;;;;10491378;28;20401;-85
2022/05/16 11:45:57;;;;;;;10.57;8.90;;;;;;;;;;10496664;28;20428;-84
2022/05/16 11:51:09;;;;;;;15.80;10.70;;;;;;;;;;10508514;28;20880;-85
2022/05/16 12:01:35;;;;;;;11.35;9.18;;;;;;;;;;10494026;28;20494;-84
2022/05/16 12:06:39;;;;;;;10.30;9.20;;;;;;;;;;10487981;28;20803;-85
2022/05/16 12:11:51;;;;;;;9.52;8.48;;;;;;;;;;10486985;28;20820;-85
2022/05/16 12:17:00;;;;;;;10.88;9.73;;;;;;;;;;10486939;28;20495;-85
2022/05/16 12:22:07;;;;;;;11.30;9.20;;;;;;;;;;10492072;28;20416;-85
2022/05/16 12:27:25;;;;;;;11.52;9.40;;;;;;;;;;10499064;28;20421;-85
2022/05/16 12:38:29;;;;;;;10.88;9.25;;;;;;;;;;10485444;22;20823;-86
2022/05/16 12:43:44;;;;;;;11.20;9.18;;;;;;;;;;10458195;28;20419;-85
2022/05/16 12:49:15;;;;;;;11.85;9.50;;;;;;;;;;10458983;28;20994;-85
2022/05/16 12:54:48;;;;;;;10.33;9.23;;;;;;;;;;10463894;28;20402;-86
2022/05/16 12:59:58;;;;;;;10.67;9.23;;;;;;;;;;10455562;28;20398;-87
2022/05/16 13:05:13;;;;;;;11.73;10.02;;;;;;;;;;10453392;28;20422;-85
2022/05/16 13:10:29;;;;;;;12.20;9.40;;;;;;;;;;10452065;28;20415;-86
2022/05/16 13:15:38;;;;;;;10.70;9.00;;;;;;;;;;10460954;28;20938;-86
2022/05/16 13:20:44;;;;;;;11.87;8.30;;;;;;;;;;10454439;28;20751;-85
2022/05/16 13:31:09;;;;;;;10.03;7.73;;;;;;;;;;10465697;28;20403;-86
2022/05/16 13:36:16;;;;;;;11.50;7.78;;;;;;;;;;10458921;28;20578;-85
2022/05/16 13:41:23;;;;;;;8.55;7.40;;;;;;;;;;10462107;28;20448;-85
2022/05/16 13:46:27;;;;;;;10.45;7.45;;;;;;;;;;10463070;28;20430;-86
2022/05/16 13:51:29;;;;;;;9.43;7.00;;;;;;;;;;10465102;28;20420;-84
2022/05/16 13:56:41;;;;;;;10.10;7.30;;;;;;;;;;10458808;28;20497;-84
2022/05/16 14:01:57;;;;;;;9.00;7.68;;;;;;;;;;10459447;28;20407;-84
2022/05/16 14:07:06;;;;;;;11.68;6.72;;;;;;;;;;10457550;28;20437;-85
2022/05/16 14:12:17;;;;;;;13.10;7.47;;;;;;;;;;10458423;28;20458;-86
2022/05/16 14:17:35;;;;;;;9.30;6.95;;;;;;;;;;10462329;28;20396;-86
2022/05/16 14:22:43;;;;;;;9.03;6.93;;;;;;;;;;10456493;28;20405;-86
2022/05/16 14:27:58;;;;;;;10.95;6.75;;;;;;;;;;10458344;28;20416;-86
2022/05/16 14:33:06;;;;;;;7.70;6.97;;;;;;;;;;10459955;28;20420;-85
2022/05/16 14:38:12;;;;;;;9.23;7.35;;;;;;;;;;10475899;22;20747;-86
2022/05/16 14:43:32;;;;;;;11.27;7.60;;;;;;;;;;10506123;28;20775;-87
2022/05/16 14:48:34;;;;;;;9.63;7.30;;;;;;;;;;10498028;28;20824;-85
2022/05/16 14:53:36;;;;;;;11.73;7.53;;;;;;;;;;10509579;28;20539;-85
2022/05/16 14:58:39;;;;;;;8.45;7.60;;;;;;;;;;10512961;28;20656;-85
2022/05/16 15:09:15;;;;;;;11.40;8.27;;;;;;;;;;10429021;28;20722;-85
2022/05/16 15:14:20;;;;;;;10.67;8.17;;;;;;;;;;10505258;28;20848;-86
2022/05/16 15:19:22;;;;;;;10.47;7.70;;;;;;;;;;10512838;28;20959;-85
2022/05/16 15:24:29;;;;;;;9.98;6.82;;;;;;;;;;10511927;28;20420;-85
2022/05/16 15:29:36;;;;;;;10.57;7.22;;;;;;;;;;10509809;28;20483;-88
2022/05/16 15:34:38;;;;;;;9.35;7.20;;;;;;;;;;10505329;28;20846;-82
2022/05/16 15:39:41;;;;;;;7.78;6.72;;;;;;;;;;10511996;28;20906;-84
2022/05/16 15:44:45;;;;;;;10.10;6.77;;;;;;;;;;10515590;28;20448;-82
2022/05/16 15:49:49;;;;;;;9.98;6.90;;;;;;;;;;10513056;28;20810;-82
2022/05/16 15:54:51;;;;;;;9.48;6.18;;;;;;;;;;10518256;28;20931;-83
2022/05/16 15:59:59;;;;;;;9.88;5.32;;;;;;;;;;10519814;28;20408;-83
2022/05/16 16:10:22;;;;;;;10.07;6.60;;;;;;;;;;10517941;28;20404;-83
2022/05/16 16:15:31;;;;;;;13.83;9.20;;;;;;;;;;10524601;28;21013;-85
2022/05/16 16:20:34;;;;;;;14.30;9.07;;;;;;;;;;10514909;28;20901;-86
2022/05/16 16:25:38;;;;;;;16.08;11.07;;;;;;;;;;10513895;28;20776;-87
2022/05/16 16:30:47;;;;;;;11.63;9.80;;;;;;;;;;10505602;28;20461;-87
2022/05/16 16:35:50;;;;;;;16.23;11.95;;;;;;;;;;10515786;28;20515;-85
2022/05/16 16:40:54;;;;;;;10.05;8.18;;;;;;;;;;10516057;28;20655;-87
2022/05/16 16:46:01;;;;;;;9.27;7.75;;;;;;;;;;10512765;28;20430;-85
2022/05/16 17:07:35;;;;;;;8.15;5.72;;;;;;;;;;11100311;22;20374;-86
2022/05/16 17:12:37;;;;;;;7.38;4.63;;;;;;;;;;10465851;28;20530;-85
2022/05/16 17:17:39;;;;;;;6.25;4.72;;;;;;;;;;10466857;28;20415;-84
2022/05/16 17:22:42;;;;;;;7.32;4.78;;;;;;;;;;10459097;28;20803;-84
2022/05/16 17:27:44;;;;;;;7.80;4.90;;;;;;;;;;10456451;28;20423;-84
2022/05/16 17:32:47;;;;;;;10.25;5.90;;;;;;;;;;10460412;28;20449;-84
2022/05/16 17:37:50;;;;;;;9.32;6.50;;;;;;;;;;10458274;28;20417;-83
2022/05/16 17:42:52;;;;;;;10.23;6.25;;;;;;;;;;10466844;28;20415;-84
2022/05/16 17:47:54;;;;;;;10.07;7.05;;;;;;;;;;10458661;28;21061;-84
2022/05/16 17:52:57;;;;;;;9.45;6.53;;;;;;;;;;10453686;28;20406;-84
2022/05/16 17:57:59;;;;;;;7.22;5.35;;;;;;;;;;10451990;28;20407;-83
2022/05/16 18:03:01;;;;;;;10.75;5.93;;;;;;;;;;10453661;28;20402;-85
2022/05/16 18:08:06;;;;;;;10.13;5.75;;;;;;;;;;10448567;28;20437;-83
2022/05/16 18:13:11;;;;;;;10.13;5.82;;;;;;;;;;10455594;28;20415;-83
2022/05/16 18:18:13;;;;;;;6.83;5.50;;;;;;;;;;10450206;28;20407;-83
2022/05/16 18:23:16;;;;;;;8.88;5.70;;;;;;;;;;10446924;28;20980;-83
2022/05/16 18:28:19;;;;;;;6.67;5.10;;;;;;;;;;10460753;28;20424;-84
2022/05/16 18:33:22;;;;;;;11.37;5.90;;;;;;;;;;10455639;28;20930;-84
2022/05/16 18:38:26;;;;;;;7.97;5.80;;;;;;;;;;10462220;28;20414;-83
2022/05/16 18:54:10;;;;;;;6.65;4.70;;;;;;;;;;10458225;28;20441;-83
2022/05/16 18:59:11;;;;;;;8.40;5.27;;;;;;;;;;10464876;28;20811;-83
2022/05/16 19:04:18;;;;;;;9.02;5.90;;;;;;;;;;10462551;28;20414;-85
2022/05/16 19:09:22;;;;;;;11.18;6.32;;;;;;;;;;10449984;28;20416;-82
2022/05/16 19:14:24;;;;;;;7.47;6.03;;;;;;;;;;10456498;28;20498;-84
2022/05/16 19:19:29;;;;;;;7.43;5.72;;;;;;;;;;10459882;28;20413;-83
2022/05/16 19:24:32;;;;;;;8.35;6.50;;;;;;;;;;10458562;28;20417;-84
2022/05/16 19:35:36;;;;;;;10.50;7.13;;;;;;;;;;11444037;22;20454;-82
2022/05/16 19:40:41;;;;;;;7.75;6.22;;;;;;;;;;10504810;28;20772;-83
2022/05/16 19:45:44;;;;;;;8.25;6.30;;;;;;;;;;10503911;28;20507;-84
2022/05/16 19:55:49;;;;;;;8.07;6.23;;;;;;;;;;10422898;22;20770;-85
2022/05/16 20:00:51;;;;;;;8.30;6.07;;;;;;;;;;10367081;28;20456;-85
2022/05/16 20:05:53;;;;;;;8.63;6.50;;;;;;;;;;10381553;28;20487;-83
2022/05/16 20:10:56;;;;;;;8.55;5.53;;;;;;;;;;10388547;28;21131;-82
2022/05/16 20:15:58;;;;;;;7.13;5.10;;;;;;;;;;10387752;28;20791;-83
2022/05/16 20:21:00;;;;;;;6.53;5.03;;;;;;;;;;10381226;28;20421;-82
2022/05/16 20:26:05;;;;;;;6.00;5.28;;;;;;;;;;10380650;28;21245;-83
2022/05/16 20:31:07;;;;;;;8.30;5.65;;;;;;;;;;10369955;28;20575;-84
2022/05/16 20:36:08;;;;;;;6.57;5.32;;;;;;;;;;10385250;28;20436;-83
2022/05/16 20:41:12;;;;;;;6.73;5.80;;;;;;;;;;10380246;28;20418;-83
2022/05/16 20:46:14;;;;;;;9.68;5.80;;;;;;;;;;10378508;28;20426;-83
2022/05/16 20:51:16;;;;;;;9.25;5.97;;;;;;;;;;10390881;28;20427;-83
2022/05/16 20:56:19;;;;;;;10.38;6.10;;;;;;;;;;10415663;28;20450;-84
2022/05/16 21:01:21;;;;;;;6.82;6.03;;;;;;;;;;10429745;28;20428;-82
2022/05/16 21:06:23;;;;;;;6.00;5.40;;;;;;;;;;10433587;28;20434;-83
2022/05/16 21:11:27;;;;;;;6.97;5.97;;;;;;;;;;10435320;28;20917;-84
2022/05/16 21:16:29;;;;;;;6.03;5.53;;;;;;;;;;10435434;28;20776;-84
2022/05/16 21:21:31;;;;;;;5.90;5.37;;;;;;;;;;10437140;28;20502;-83
2022/05/16 21:26:34;;;;;;;9.45;5.68;;;;;;;;;;10437317;28;20792;-83
2022/05/16 21:31:36;;;;;;;6.77;6.07;;;;;;;;;;10435869;28;20520;-84
2022/05/16 21:36:38;;;;;;;8.00;6.30;;;;;;;;;;10438348;28;20412;-83
2022/05/16 21:41:41;;;;;;;8.05;5.97;;;;;;;;;;10437503;28;20414;-83
2022/05/16 21:46:45;;;;;;;8.35;5.70;;;;;;;;;;10436707;28;20431;-83
2022/05/16 21:51:47;;;;;;;8.03;7.00;;;;;;;;;;10430337;28;20419;-84
2022/05/16 21:56:50;;;;;;;7.25;6.55;;;;;;;;;;10399855;28;20506;-83
2022/05/16 22:01:52;;;;;;;6.67;5.43;;;;;;;;;;10397405;28;20405;-83
2022/05/16 22:06:54;;;;;;;7.53;6.17;;;;;;;;;;10398869;28;20431;-82
2022/05/16 22:11:57;;;;;;;6.93;6.25;;;;;;;;;;10397006;28;20407;-83
2022/05/16 22:16:59;;;;;;;7.28;5.90;;;;;;;;;;10399391;28;20413;-82
2022/05/16 22:22:00;;;;;;;8.75;7.10;;;;;;;;;;10396911;28;20407;-83
2022/05/16 22:27:04;;;;;;;7.40;6.65;;;;;;;;;;10382068;28;20437;-83
2022/05/16 22:32:07;;;;;;;7.85;6.95;;;;;;;;;;10380797;28;20401;-83
2022/05/16 22:37:09;;;;;;;7.90;7.10;;;;;;;;;;10381264;28;20836;-83
2022/05/16 22:42:14;;;;;;;8.68;7.35;;;;;;;;;;10381715;28;20417;-83
2022/05/16 22:47:16;;;;;;;9.33;8.10;;;;;;;;;;10381020;28;20601;-82
2022/05/16 22:52:18;;;;;;;9.53;8.27;;;;;;;;;;10379525;28;20842;-82
2022/05/16 22:57:22;;;;;;;9.30;8.40;;;;;;;;;;10380528;28;20899;-83
2022/05/16 23:07:43;;;;;;;9.87;8.40;;;;;;;;;;10379579;28;20888;-83
2022/05/16 23:12:46;;;;;;;11.20;7.97;;;;;;;;;;10379583;28;20489;-82
2022/05/16 23:17:48;;;;;;;9.40;7.50;;;;;;;;;;10378804;28;20404;-82
2022/05/16 23:22:50;;;;;;;7.88;6.90;;;;;;;;;;10382233;28;20563;-82
2022/05/16 23:27:53;;;;;;;9.18;7.53;;;;;;;;;;10381026;28;20777;-83
2022/05/16 23:32:55;;;;;;;8.82;6.60;;;;;;;;;;10379469;28;20401;-82
2022/05/16 23:37:57;;;;;;;8.30;7.40;;;;;;;;;;10381886;28;20496;-81
2022/05/16 23:43:00;;;;;;;9.63;7.27;;;;;;;;;;10383633;28;20441;-83
2022/05/16 23:48:02;;;;;;;9.05;7.70;;;;;;;;;;10382126;28;20436;-83
2022/05/16 23:53:06;;;;;;;8.95;7.50;;;;;;;;;;10377768;28;20417;-82
2022/05/16 23:58:09;;;;;;;10.10;8.50;;;;;;;;;;10378319;28;20410;-82
